sensor_id;sensor_type;location;lat;lon;timestamp;P1;durP1;ratioP1;P2;durP2;ratioP2
30543;SDS011;43388;46.308;4.600;2023-06-26T00:01:26;6.18;;;5.20;;
30543;SDS011;43388;46.308;4.600;2023-06-26T00:03:56;7.88;;;5.45;;
30543;SDS011;43388;46.308;4.600;2023-06-26T00:06:22;8.25;;;5.50;;
30543;SDS011;43388;46.308;4.600;2023-06-26T00:08:50;6.35;;;5.50;;
30543;SDS011;43388;46.308;4.600;2023-06-26T00:11:16;9.20;;;5.72;;
30543;SDS011;43388;46.308;4.600;2023-06-26T00:13:42;6.95;;;5.30;;
30543;SDS011;43388;46.308;4.600;2023-06-26T00:16:08;6.03;;;5.53;;
30543;SDS011;43388;46.308;4.600;2023-06-26T00:18:34;11.15;;;5.53;;
30543;SDS011;43388;46.308;4.600;2023-06-26T00:21:00;6.15;;;5.63;;
30543;SDS011;43388;46.308;4.600;2023-06-26T00:23:26;6.72;;;6.13;;
30543;SDS011;43388;46.308;4.600;2023-06-26T00:25:57;7.10;;;5.72;;
30543;SDS011;43388;46.308;4.600;2023-06-26T00:28:23;6.72;;;5.88;;
30543;SDS011;43388;46.308;4.600;2023-06-26T00:30:49;6.55;;;5.53;;
30543;SDS011;43388;46.308;4.600;2023-06-26T00:33:15;17.88;;;6.68;;
30543;SDS011;43388;46.308;4.600;2023-06-26T00:35:41;11.40;;;6.00;;
30543;SDS011;43388;46.308;4.600;2023-06-26T00:38:07;6.38;;;5.78;;
30543;SDS011;43388;46.308;4.600;2023-06-26T00:40:33;7.40;;;5.78;;
30543;SDS011;43388;46.308;4.600;2023-06-26T00:42:59;9.88;;;6.47;;
30543;SDS011;43388;46.308;4.600;2023-06-26T00:45:25;5.90;;;5.30;;
30543;SDS011;43388;46.308;4.600;2023-06-26T00:47:51;6.22;;;5.18;;
30543;SDS011;43388;46.308;4.600;2023-06-26T00:50:17;7.60;;;5.60;;
30543;SDS011;43388;46.308;4.600;2023-06-26T00:52:44;7.13;;;6.03;;
30543;SDS011;43388;46.308;4.600;2023-06-26T00:55:10;7.10;;;5.97;;
30543;SDS011;43388;46.308;4.600;2023-06-26T00:57:36;12.20;;;6.30;;
30543;SDS011;43388;46.308;4.600;2023-06-26T01:00:02;6.07;;;5.53;;
30543;SDS011;43388;46.308;4.600;2023-06-26T01:02:29;6.80;;;5.82;;
30543;SDS011;43388;46.308;4.600;2023-06-26T01:04:58;6.65;;;5.72;;
30543;SDS011;43388;46.308;4.600;2023-06-26T01:07:25;6.65;;;5.80;;
30543;SDS011;43388;46.308;4.600;2023-06-26T01:09:51;7.93;;;6.38;;
30543;SDS011;43388;46.308;4.600;2023-06-26T01:12:17;6.38;;;5.72;;
30543;SDS011;43388;46.308;4.600;2023-06-26T01:14:43;8.27;;;5.88;;
30543;SDS011;43388;46.308;4.600;2023-06-26T01:17:09;8.85;;;6.28;;
30543;SDS011;43388;46.308;4.600;2023-06-26T01:19:40;10.70;;;6.13;;
30543;SDS011;43388;46.308;4.600;2023-06-26T01:24:39;6.68;;;5.65;;
30543;SDS011;43388;46.308;4.600;2023-06-26T01:27:08;6.55;;;6.05;;
30543;SDS011;43388;46.308;4.600;2023-06-26T01:29:34;8.02;;;5.55;;
30543;SDS011;43388;46.308;4.600;2023-06-26T01:32:00;8.25;;;5.93;;
30543;SDS011;43388;46.308;4.600;2023-06-26T01:34:26;9.38;;;7.10;;
30543;SDS011;43388;46.308;4.600;2023-06-26T01:36:53;8.73;;;6.28;;
30543;SDS011;43388;46.308;4.600;2023-06-26T01:39:19;8.48;;;5.60;;
30543;SDS011;43388;46.308;4.600;2023-06-26T01:41:45;7.30;;;6.40;;
30543;SDS011;43388;46.308;4.600;2023-06-26T01:44:15;9.82;;;6.65;;
30543;SDS011;43388;46.308;4.600;2023-06-26T01:46:59;12.13;;;6.40;;
30543;SDS011;43388;46.308;4.600;2023-06-26T01:49:31;9.55;;;6.38;;
30543;SDS011;43388;46.308;4.600;2023-06-26T01:54:28;9.50;;;6.82;;
30543;SDS011;43388;46.308;4.600;2023-06-26T01:56:55;8.40;;;7.28;;
30543;SDS011;43388;46.308;4.600;2023-06-26T01:59:23;7.57;;;6.40;;
30543;SDS011;43388;46.308;4.600;2023-06-26T02:01:49;9.82;;;6.50;;
30543;SDS011;43388;46.308;4.600;2023-06-26T02:04:15;7.60;;;6.90;;
30543;SDS011;43388;46.308;4.600;2023-06-26T02:06:41;8.30;;;6.90;;
30543;SDS011;43388;46.308;4.600;2023-06-26T02:09:07;13.75;;;7.25;;
30543;SDS011;43388;46.308;4.600;2023-06-26T02:11:33;7.10;;;6.40;;
30543;SDS011;43388;46.308;4.600;2023-06-26T02:14:00;9.93;;;6.50;;
30543;SDS011;43388;46.308;4.600;2023-06-26T02:16:26;8.73;;;6.45;;
30543;SDS011;43388;46.308;4.600;2023-06-26T02:18:52;7.57;;;6.88;;
30543;SDS011;43388;46.308;4.600;2023-06-26T02:21:18;7.15;;;6.45;;
30543;SDS011;43388;46.308;4.600;2023-06-26T02:23:44;10.13;;;6.88;;
30543;SDS011;43388;46.308;4.600;2023-06-26T02:26:10;8.23;;;6.90;;
30543;SDS011;43388;46.308;4.600;2023-06-26T02:28:36;10.10;;;6.90;;
30543;SDS011;43388;46.308;4.600;2023-06-26T02:31:02;9.55;;;6.85;;
30543;SDS011;43388;46.308;4.600;2023-06-26T02:33:28;8.25;;;6.72;;
30543;SDS011;43388;46.308;4.600;2023-06-26T02:35:54;11.90;;;6.85;;
30543;SDS011;43388;46.308;4.600;2023-06-26T02:38:20;12.38;;;6.82;;
30543;SDS011;43388;46.308;4.600;2023-06-26T02:40:46;8.70;;;7.35;;
30543;SDS011;43388;46.308;4.600;2023-06-26T02:43:12;9.55;;;7.10;;
30543;SDS011;43388;46.308;4.600;2023-06-26T02:45:38;8.45;;;7.20;;
30543;SDS011;43388;46.308;4.600;2023-06-26T02:48:04;13.30;;;7.47;;
30543;SDS011;43388;46.308;4.600;2023-06-26T02:50:30;8.23;;;7.30;;
30543;SDS011;43388;46.308;4.600;2023-06-26T02:52:56;14.50;;;6.72;;
30543;SDS011;43388;46.308;4.600;2023-06-26T02:55:22;7.38;;;6.68;;
30543;SDS011;43388;46.308;4.600;2023-06-26T02:57:48;7.72;;;7.03;;
30543;SDS011;43388;46.308;4.600;2023-06-26T03:00:14;10.25;;;7.07;;
30543;SDS011;43388;46.308;4.600;2023-06-26T03:02:40;8.13;;;7.07;;
30543;SDS011;43388;46.308;4.600;2023-06-26T03:05:07;8.20;;;7.40;;
30543;SDS011;43388;46.308;4.600;2023-06-26T03:07:33;10.25;;;6.72;;
30543;SDS011;43388;46.308;4.600;2023-06-26T03:09:59;8.02;;;7.20;;
30543;SDS011;43388;46.308;4.600;2023-06-26T03:12:25;7.13;;;6.43;;
30543;SDS011;43388;46.308;4.600;2023-06-26T03:14:51;7.00;;;6.35;;
30543;SDS011;43388;46.308;4.600;2023-06-26T03:17:17;7.63;;;6.45;;
30543;SDS011;43388;46.308;4.600;2023-06-26T03:19:43;7.55;;;6.85;;
30543;SDS011;43388;46.308;4.600;2023-06-26T03:22:10;9.25;;;7.10;;
30543;SDS011;43388;46.308;4.600;2023-06-26T03:24:36;9.02;;;7.25;;
30543;SDS011;43388;46.308;4.600;2023-06-26T03:27:02;8.80;;;7.03;;
30543;SDS011;43388;46.308;4.600;2023-06-26T03:29:29;9.45;;;6.85;;
30543;SDS011;43388;46.308;4.600;2023-06-26T03:31:55;8.63;;;7.32;;
30543;SDS011;43388;46.308;4.600;2023-06-26T03:34:21;11.30;;;7.30;;
30543;SDS011;43388;46.308;4.600;2023-06-26T03:36:47;9.38;;;7.45;;
30543;SDS011;43388;46.308;4.600;2023-06-26T03:39:13;8.85;;;7.22;;
30543;SDS011;43388;46.308;4.600;2023-06-26T03:41:39;10.85;;;6.97;;
30543;SDS011;43388;46.308;4.600;2023-06-26T03:44:05;7.55;;;6.85;;
30543;SDS011;43388;46.308;4.600;2023-06-26T03:46:31;9.05;;;7.15;;
30543;SDS011;43388;46.308;4.600;2023-06-26T03:48:57;10.15;;;7.45;;
30543;SDS011;43388;46.308;4.600;2023-06-26T03:51:23;11.07;;;7.97;;
30543;SDS011;43388;46.308;4.600;2023-06-26T03:53:49;7.88;;;7.18;;
30543;SDS011;43388;46.308;4.600;2023-06-26T03:56:15;10.18;;;7.13;;
30543;SDS011;43388;46.308;4.600;2023-06-26T03:58:42;10.82;;;7.47;;
30543;SDS011;43388;46.308;4.600;2023-06-26T04:01:08;9.45;;;7.63;;
30543;SDS011;43388;46.308;4.600;2023-06-26T04:03:34;7.60;;;6.90;;
30543;SDS011;43388;46.308;4.600;2023-06-26T04:06:00;14.65;;;7.68;;
30543;SDS011;43388;46.308;4.600;2023-06-26T04:08:25;8.00;;;7.20;;
30543;SDS011;43388;46.308;4.600;2023-06-26T04:10:52;9.23;;;7.15;;
30543;SDS011;43388;46.308;4.600;2023-06-26T04:13:18;7.82;;;7.03;;
30543;SDS011;43388;46.308;4.600;2023-06-26T04:15:44;9.93;;;7.72;;
30543;SDS011;43388;46.308;4.600;2023-06-26T04:18:10;8.63;;;7.20;;
30543;SDS011;43388;46.308;4.600;2023-06-26T04:20:41;10.05;;;7.25;;
30543;SDS011;43388;46.308;4.600;2023-06-26T04:23:10;7.88;;;7.00;;
30543;SDS011;43388;46.308;4.600;2023-06-26T04:25:36;7.90;;;7.10;;
30543;SDS011;43388;46.308;4.600;2023-06-26T04:28:02;10.80;;;7.40;;
30543;SDS011;43388;46.308;4.600;2023-06-26T04:30:28;8.00;;;7.20;;
30543;SDS011;43388;46.308;4.600;2023-06-26T04:32:55;12.57;;;7.60;;
30543;SDS011;43388;46.308;4.600;2023-06-26T04:35:23;10.40;;;6.82;;
30543;SDS011;43388;46.308;4.600;2023-06-26T04:37:49;7.93;;;6.95;;
30543;SDS011;43388;46.308;4.600;2023-06-26T04:40:15;9.82;;;7.82;;
30543;SDS011;43388;46.308;4.600;2023-06-26T04:42:41;10.48;;;7.03;;
30543;SDS011;43388;46.308;4.600;2023-06-26T04:45:07;9.48;;;7.60;;
30543;SDS011;43388;46.308;4.600;2023-06-26T04:47:33;7.93;;;7.13;;
30543;SDS011;43388;46.308;4.600;2023-06-26T04:49:59;9.35;;;7.57;;
30543;SDS011;43388;46.308;4.600;2023-06-26T04:52:25;9.10;;;7.63;;
30543;SDS011;43388;46.308;4.600;2023-06-26T04:54:51;13.30;;;7.30;;
30543;SDS011;43388;46.308;4.600;2023-06-26T04:57:17;9.32;;;7.10;;
30543;SDS011;43388;46.308;4.600;2023-06-26T04:59:43;8.65;;;7.55;;
30543;SDS011;43388;46.308;4.600;2023-06-26T05:02:09;12.10;;;7.05;;
30543;SDS011;43388;46.308;4.600;2023-06-26T05:04:36;10.25;;;6.57;;
30543;SDS011;43388;46.308;4.600;2023-06-26T05:07:02;13.32;;;6.97;;
30543;SDS011;43388;46.308;4.600;2023-06-26T05:09:29;9.82;;;7.40;;
30543;SDS011;43388;46.308;4.600;2023-06-26T05:11:55;8.43;;;6.57;;
30543;SDS011;43388;46.308;4.600;2023-06-26T05:14:21;13.20;;;7.38;;
30543;SDS011;43388;46.308;4.600;2023-06-26T05:16:47;12.23;;;6.97;;
30543;SDS011;43388;46.308;4.600;2023-06-26T05:19:15;11.77;;;8.07;;
30543;SDS011;43388;46.308;4.600;2023-06-26T05:21:41;12.88;;;7.15;;
30543;SDS011;43388;46.308;4.600;2023-06-26T05:24:07;9.45;;;7.40;;
30543;SDS011;43388;46.308;4.600;2023-06-26T05:26:34;14.43;;;8.00;;
30543;SDS011;43388;46.308;4.600;2023-06-26T05:29:00;8.52;;;7.63;;
30543;SDS011;43388;46.308;4.600;2023-06-26T05:31:26;8.48;;;7.15;;
30543;SDS011;43388;46.308;4.600;2023-06-26T05:33:52;13.85;;;6.97;;
30543;SDS011;43388;46.308;4.600;2023-06-26T05:36:21;8.88;;;6.85;;
30543;SDS011;43388;46.308;4.600;2023-06-26T05:38:47;15.52;;;7.53;;
30543;SDS011;43388;46.308;4.600;2023-06-26T05:41:15;8.13;;;7.00;;
30543;SDS011;43388;46.308;4.600;2023-06-26T05:43:41;11.13;;;7.60;;
30543;SDS011;43388;46.308;4.600;2023-06-26T05:46:07;10.63;;;7.05;;
30543;SDS011;43388;46.308;4.600;2023-06-26T05:48:33;9.93;;;6.85;;
30543;SDS011;43388;46.308;4.600;2023-06-26T05:50:59;14.82;;;6.95;;
30543;SDS011;43388;46.308;4.600;2023-06-26T05:53:26;7.50;;;6.65;;
30543;SDS011;43388;46.308;4.600;2023-06-26T05:55:52;10.93;;;7.38;;
30543;SDS011;43388;46.308;4.600;2023-06-26T05:58:18;9.38;;;7.03;;
30543;SDS011;43388;46.308;4.600;2023-06-26T06:00:45;8.43;;;7.28;;
30543;SDS011;43388;46.308;4.600;2023-06-26T06:03:11;18.52;;;7.30;;
30543;SDS011;43388;46.308;4.600;2023-06-26T06:05:37;8.73;;;6.95;;
30543;SDS011;43388;46.308;4.600;2023-06-26T06:08:04;10.13;;;6.38;;
30543;SDS011;43388;46.308;4.600;2023-06-26T06:10:30;11.75;;;7.22;;
30543;SDS011;43388;46.308;4.600;2023-06-26T06:12:56;9.32;;;7.00;;
30543;SDS011;43388;46.308;4.600;2023-06-26T06:15:22;11.27;;;7.55;;
30543;SDS011;43388;46.308;4.600;2023-06-26T06:17:48;8.50;;;7.05;;
30543;SDS011;43388;46.308;4.600;2023-06-26T06:20:14;10.10;;;7.43;;
30543;SDS011;43388;46.308;4.600;2023-06-26T06:22:40;13.73;;;7.20;;
30543;SDS011;43388;46.308;4.600;2023-06-26T06:25:06;12.23;;;7.05;;
30543;SDS011;43388;46.308;4.600;2023-06-26T06:27:32;9.07;;;6.75;;
30543;SDS011;43388;46.308;4.600;2023-06-26T06:29:58;14.18;;;7.00;;
30543;SDS011;43388;46.308;4.600;2023-06-26T06:32:24;11.98;;;7.28;;
30543;SDS011;43388;46.308;4.600;2023-06-26T06:34:50;13.52;;;7.47;;
30543;SDS011;43388;46.308;4.600;2023-06-26T06:37:16;7.82;;;6.95;;
30543;SDS011;43388;46.308;4.600;2023-06-26T06:39:42;14.15;;;7.90;;
30543;SDS011;43388;46.308;4.600;2023-06-26T06:42:08;14.40;;;7.57;;
30543;SDS011;43388;46.308;4.600;2023-06-26T06:44:34;13.07;;;7.25;;
30543;SDS011;43388;46.308;4.600;2023-06-26T06:47:00;10.57;;;6.85;;
30543;SDS011;43388;46.308;4.600;2023-06-26T06:49:26;9.02;;;7.30;;
30543;SDS011;43388;46.308;4.600;2023-06-26T06:51:52;9.90;;;7.15;;
30543;SDS011;43388;46.308;4.600;2023-06-26T06:54:18;7.20;;;6.60;;
30543;SDS011;43388;46.308;4.600;2023-06-26T06:56:44;10.20;;;7.60;;
30543;SDS011;43388;46.308;4.600;2023-06-26T06:59:10;20.70;;;10.55;;
30543;SDS011;43388;46.308;4.600;2023-06-26T07:01:36;11.68;;;7.53;;
30543;SDS011;43388;46.308;4.600;2023-06-26T07:04:03;12.15;;;8.43;;
30543;SDS011;43388;46.308;4.600;2023-06-26T07:06:29;20.85;;;8.50;;
30543;SDS011;43388;46.308;4.600;2023-06-26T07:08:55;13.50;;;8.40;;
30543;SDS011;43388;46.308;4.600;2023-06-26T07:11:21;12.82;;;7.97;;
30543;SDS011;43388;46.308;4.600;2023-06-26T07:13:47;9.70;;;7.85;;
30543;SDS011;43388;46.308;4.600;2023-06-26T07:16:13;10.30;;;8.18;;
30543;SDS011;43388;46.308;4.600;2023-06-26T07:18:40;11.75;;;8.02;;
30543;SDS011;43388;46.308;4.600;2023-06-26T07:21:06;12.68;;;7.90;;
30543;SDS011;43388;46.308;4.600;2023-06-26T07:23:32;12.90;;;7.80;;
30543;SDS011;43388;46.308;4.600;2023-06-26T07:25:58;12.70;;;8.18;;
30543;SDS011;43388;46.308;4.600;2023-06-26T07:28:24;15.32;;;8.45;;
30543;SDS011;43388;46.308;4.600;2023-06-26T07:30:50;14.25;;;7.53;;
30543;SDS011;43388;46.308;4.600;2023-06-26T07:33:16;11.10;;;7.55;;
30543;SDS011;43388;46.308;4.600;2023-06-26T07:35:42;11.73;;;8.27;;
30543;SDS011;43388;46.308;4.600;2023-06-26T07:38:08;11.88;;;8.07;;
30543;SDS011;43388;46.308;4.600;2023-06-26T07:40:34;9.20;;;8.18;;
30543;SDS011;43388;46.308;4.600;2023-06-26T07:43:00;11.95;;;8.50;;
30543;SDS011;43388;46.308;4.600;2023-06-26T07:45:26;11.43;;;8.25;;
30543;SDS011;43388;46.308;4.600;2023-06-26T07:47:52;10.57;;;8.68;;
30543;SDS011;43388;46.308;4.600;2023-06-26T07:50:18;17.48;;;8.48;;
30543;SDS011;43388;46.308;4.600;2023-06-26T07:52:47;12.75;;;8.20;;
30543;SDS011;43388;46.308;4.600;2023-06-26T07:55:13;11.82;;;8.70;;
30543;SDS011;43388;46.308;4.600;2023-06-26T07:57:39;15.13;;;9.07;;
30543;SDS011;43388;46.308;4.600;2023-06-26T08:00:05;12.00;;;8.73;;
30543;SDS011;43388;46.308;4.600;2023-06-26T08:02:32;13.85;;;9.15;;
30543;SDS011;43388;46.308;4.600;2023-06-26T08:04:58;19.20;;;9.45;;
30543;SDS011;43388;46.308;4.600;2023-06-26T08:07:24;11.30;;;9.23;;
30543;SDS011;43388;46.308;4.600;2023-06-26T08:09:50;11.45;;;9.35;;
30543;SDS011;43388;46.308;4.600;2023-06-26T08:12:16;13.55;;;8.68;;
30543;SDS011;43388;46.308;4.600;2023-06-26T08:14:42;12.25;;;9.25;;
30543;SDS011;43388;46.308;4.600;2023-06-26T08:17:08;16.67;;;9.35;;
30543;SDS011;43388;46.308;4.600;2023-06-26T08:19:34;11.05;;;8.63;;
30543;SDS011;43388;46.308;4.600;2023-06-26T08:22:00;14.05;;;8.55;;
30543;SDS011;43388;46.308;4.600;2023-06-26T08:24:26;16.40;;;8.68;;
30543;SDS011;43388;46.308;4.600;2023-06-26T08:26:52;10.75;;;8.57;;
30543;SDS011;43388;46.308;4.600;2023-06-26T08:29:18;10.20;;;8.93;;
30543;SDS011;43388;46.308;4.600;2023-06-26T08:31:44;11.30;;;9.30;;
30543;SDS011;43388;46.308;4.600;2023-06-26T08:34:10;12.65;;;8.70;;
30543;SDS011;43388;46.308;4.600;2023-06-26T08:36:36;15.25;;;8.75;;
30543;SDS011;43388;46.308;4.600;2023-06-26T08:39:02;11.52;;;9.20;;
30543;SDS011;43388;46.308;4.600;2023-06-26T08:41:30;13.93;;;10.02;;
30543;SDS011;43388;46.308;4.600;2023-06-26T08:43:56;14.85;;;9.50;;
30543;SDS011;43388;46.308;4.600;2023-06-26T08:46:22;8.88;;;8.02;;
30543;SDS011;43388;46.308;4.600;2023-06-26T08:48:49;13.50;;;8.68;;
30543;SDS011;43388;46.308;4.600;2023-06-26T08:51:16;15.85;;;9.15;;
30543;SDS011;43388;46.308;4.600;2023-06-26T08:53:46;10.07;;;8.40;;
30543;SDS011;43388;46.308;4.600;2023-06-26T08:56:15;10.13;;;8.40;;
30543;SDS011;43388;46.308;4.600;2023-06-26T08:58:42;9.07;;;8.02;;
30543;SDS011;43388;46.308;4.600;2023-06-26T09:01:09;9.55;;;8.55;;
30543;SDS011;43388;46.308;4.600;2023-06-26T09:03:35;11.95;;;8.73;;
30543;SDS011;43388;46.308;4.600;2023-06-26T09:06:01;15.63;;;9.05;;
30543;SDS011;43388;46.308;4.600;2023-06-26T09:08:27;11.23;;;8.68;;
30543;SDS011;43388;46.308;4.600;2023-06-26T09:10:53;11.00;;;8.52;;
30543;SDS011;43388;46.308;4.600;2023-06-26T09:13:19;10.88;;;7.72;;
30543;SDS011;43388;46.308;4.600;2023-06-26T09:15:45;11.68;;;8.48;;
30543;SDS011;43388;46.308;4.600;2023-06-26T09:18:12;11.73;;;8.57;;
30543;SDS011;43388;46.308;4.600;2023-06-26T09:20:38;13.30;;;8.80;;
30543;SDS011;43388;46.308;4.600;2023-06-26T09:23:04;13.57;;;8.75;;
30543;SDS011;43388;46.308;4.600;2023-06-26T09:25:30;12.10;;;8.75;;
30543;SDS011;43388;46.308;4.600;2023-06-26T09:27:57;10.27;;;8.13;;
30543;SDS011;43388;46.308;4.600;2023-06-26T09:30:23;7.97;;;7.20;;
30543;SDS011;43388;46.308;4.600;2023-06-26T09:32:49;10.73;;;7.88;;
30543;SDS011;43388;46.308;4.600;2023-06-26T09:35:19;9.93;;;7.63;;
30543;SDS011;43388;46.308;4.600;2023-06-26T09:37:45;8.00;;;7.20;;
30543;SDS011;43388;46.308;4.600;2023-06-26T09:40:11;10.30;;;7.25;;
30543;SDS011;43388;46.308;4.600;2023-06-26T09:42:37;8.13;;;7.35;;
30543;SDS011;43388;46.308;4.600;2023-06-26T09:45:03;8.75;;;7.85;;
30543;SDS011;43388;46.308;4.600;2023-06-26T09:47:30;10.02;;;7.20;;
30543;SDS011;43388;46.308;4.600;2023-06-26T09:49:59;10.73;;;7.20;;
30543;SDS011;43388;46.308;4.600;2023-06-26T09:52:26;11.70;;;7.40;;
30543;SDS011;43388;46.308;4.600;2023-06-26T09:55:07;8.50;;;7.57;;
30543;SDS011;43388;46.308;4.600;2023-06-26T09:57:34;10.18;;;7.15;;
30543;SDS011;43388;46.308;4.600;2023-06-26T10:00:01;10.18;;;7.63;;
30543;SDS011;43388;46.308;4.600;2023-06-26T10:02:28;10.73;;;8.45;;
30543;SDS011;43388;46.308;4.600;2023-06-26T10:04:54;9.05;;;7.20;;
30543;SDS011;43388;46.308;4.600;2023-06-26T10:07:20;9.35;;;6.68;;
30543;SDS011;43388;46.308;4.600;2023-06-26T10:09:47;9.75;;;7.97;;
30543;SDS011;43388;46.308;4.600;2023-06-26T10:14:40;8.90;;;7.05;;
30543;SDS011;43388;46.308;4.600;2023-06-26T10:17:09;12.52;;;6.65;;
30543;SDS011;43388;46.308;4.600;2023-06-26T10:19:36;8.25;;;6.93;;
30543;SDS011;43388;46.308;4.600;2023-06-26T10:22:03;8.63;;;7.30;;
30543;SDS011;43388;46.308;4.600;2023-06-26T10:24:31;10.93;;;7.53;;
30543;SDS011;43388;46.308;4.600;2023-06-26T10:26:59;11.52;;;6.85;;
30543;SDS011;43388;46.308;4.600;2023-06-26T10:29:27;10.80;;;6.78;;
30543;SDS011;43388;46.308;4.600;2023-06-26T10:31:56;6.53;;;5.93;;
30543;SDS011;43388;46.308;4.600;2023-06-26T10:34:23;7.95;;;6.90;;
30543;SDS011;43388;46.308;4.600;2023-06-26T10:36:58;17.27;;;7.68;;
30543;SDS011;43388;46.308;4.600;2023-06-26T10:39:25;9.00;;;6.70;;
30543;SDS011;43388;46.308;4.600;2023-06-26T10:41:51;9.68;;;7.30;;
30543;SDS011;43388;46.308;4.600;2023-06-26T10:44:19;13.57;;;6.18;;
30543;SDS011;43388;46.308;4.600;2023-06-26T10:49:15;7.90;;;6.60;;
30543;SDS011;43388;46.308;4.600;2023-06-26T10:51:48;8.65;;;6.05;;
30543;SDS011;43388;46.308;4.600;2023-06-26T10:54:15;7.63;;;6.68;;
30543;SDS011;43388;46.308;4.600;2023-06-26T10:56:48;9.15;;;6.53;;
30543;SDS011;43388;46.308;4.600;2023-06-26T10:59:16;9.98;;;6.72;;
30543;SDS011;43388;46.308;4.600;2023-06-26T11:01:44;14.50;;;9.40;;
30543;SDS011;43388;46.308;4.600;2023-06-26T11:04:11;14.65;;;7.63;;
30543;SDS011;43388;46.308;4.600;2023-06-26T11:06:37;8.90;;;6.30;;
30543;SDS011;43388;46.308;4.600;2023-06-26T11:14:15;11.82;;;6.60;;
30543;SDS011;43388;46.308;4.600;2023-06-26T11:16:42;10.40;;;7.03;;
30543;SDS011;43388;46.308;4.600;2023-06-26T11:19:09;6.68;;;5.95;;
30543;SDS011;43388;46.308;4.600;2023-06-26T11:21:36;9.27;;;5.88;;
30543;SDS011;43388;46.308;4.600;2023-06-26T11:24:06;7.97;;;6.78;;
30543;SDS011;43388;46.308;4.600;2023-06-26T11:26:39;7.40;;;6.40;;
30543;SDS011;43388;46.308;4.600;2023-06-26T11:29:05;9.35;;;5.90;;
30543;SDS011;43388;46.308;4.600;2023-06-26T11:31:32;7.35;;;6.05;;
30543;SDS011;43388;46.308;4.600;2023-06-26T11:33:59;8.23;;;5.90;;
30543;SDS011;43388;46.308;4.600;2023-06-26T11:36:26;10.57;;;6.20;;
30543;SDS011;43388;46.308;4.600;2023-06-26T11:38:53;7.28;;;5.85;;
30543;SDS011;43388;46.308;4.600;2023-06-26T11:41:19;13.27;;;6.13;;
30543;SDS011;43388;46.308;4.600;2023-06-26T11:43:46;6.72;;;6.03;;
30543;SDS011;43388;46.308;4.600;2023-06-26T11:46:12;7.25;;;6.38;;
30543;SDS011;43388;46.308;4.600;2023-06-26T11:48:38;7.28;;;6.03;;
30543;SDS011;43388;46.308;4.600;2023-06-26T11:51:05;6.88;;;6.18;;
30543;SDS011;43388;46.308;4.600;2023-06-26T11:53:31;14.52;;;5.68;;
30543;SDS011;43388;46.308;4.600;2023-06-26T11:55:57;9.07;;;6.00;;
30543;SDS011;43388;46.308;4.600;2023-06-26T11:58:23;6.78;;;6.07;;
30543;SDS011;43388;46.308;4.600;2023-06-26T12:00:49;7.80;;;5.35;;
30543;SDS011;43388;46.308;4.600;2023-06-26T12:03:15;11.27;;;5.38;;
30543;SDS011;43388;46.308;4.600;2023-06-26T12:05:41;10.07;;;5.88;;
30543;SDS011;43388;46.308;4.600;2023-06-26T12:08:10;7.72;;;5.50;;
30543;SDS011;43388;46.308;4.600;2023-06-26T12:10:36;5.47;;;4.97;;
30543;SDS011;43388;46.308;4.600;2023-06-26T12:13:02;6.05;;;5.20;;
30543;SDS011;43388;46.308;4.600;2023-06-26T12:15:28;6.10;;;5.50;;
30543;SDS011;43388;46.308;4.600;2023-06-26T12:17:54;6.20;;;5.60;;
30543;SDS011;43388;46.308;4.600;2023-06-26T12:20:21;8.95;;;5.80;;
30543;SDS011;43388;46.308;4.600;2023-06-26T12:22:47;7.45;;;5.60;;
30543;SDS011;43388;46.308;4.600;2023-06-26T12:25:14;6.60;;;5.85;;
30543;SDS011;43388;46.308;4.600;2023-06-26T12:27:40;6.55;;;5.63;;
30543;SDS011;43388;46.308;4.600;2023-06-26T12:30:06;10.48;;;5.85;;
30543;SDS011;43388;46.308;4.600;2023-06-26T12:32:34;6.80;;;5.80;;
30543;SDS011;43388;46.308;4.600;2023-06-26T12:35:00;7.55;;;6.07;;
30543;SDS011;43388;46.308;4.600;2023-06-26T12:37:26;6.15;;;5.55;;
30543;SDS011;43388;46.308;4.600;2023-06-26T12:39:53;7.90;;;5.55;;
30543;SDS011;43388;46.308;4.600;2023-06-26T12:42:21;5.80;;;5.25;;
30543;SDS011;43388;46.308;4.600;2023-06-26T12:44:48;5.55;;;5.00;;
30543;SDS011;43388;46.308;4.600;2023-06-26T12:47:15;5.25;;;4.80;;
30543;SDS011;43388;46.308;4.600;2023-06-26T12:49:41;6.00;;;5.25;;
30543;SDS011;43388;46.308;4.600;2023-06-26T12:52:12;6.82;;;5.40;;
30543;SDS011;43388;46.308;4.600;2023-06-26T12:54:39;6.47;;;5.00;;
30543;SDS011;43388;46.308;4.600;2023-06-26T12:57:06;5.78;;;5.22;;
30543;SDS011;43388;46.308;4.600;2023-06-26T12:59:32;6.95;;;5.65;;
30543;SDS011;43388;46.308;4.600;2023-06-26T13:01:59;6.03;;;5.38;;
30543;SDS011;43388;46.308;4.600;2023-06-26T13:04:25;14.25;;;5.55;;
30543;SDS011;43388;46.308;4.600;2023-06-26T13:06:51;8.43;;;5.25;;
30543;SDS011;43388;46.308;4.600;2023-06-26T13:09:20;5.68;;;5.15;;
30543;SDS011;43388;46.308;4.600;2023-06-26T13:11:46;5.85;;;4.85;;
30543;SDS011;43388;46.308;4.600;2023-06-26T13:14:12;8.35;;;5.40;;
30543;SDS011;43388;46.308;4.600;2023-06-26T13:16:38;7.43;;;5.45;;
30543;SDS011;43388;46.308;4.600;2023-06-26T13:19:04;5.85;;;5.03;;
30543;SDS011;43388;46.308;4.600;2023-06-26T13:21:30;7.32;;;5.45;;
30543;SDS011;43388;46.308;4.600;2023-06-26T13:23:56;5.35;;;4.78;;
30543;SDS011;43388;46.308;4.600;2023-06-26T13:26:22;5.40;;;4.90;;
30543;SDS011;43388;46.308;4.600;2023-06-26T13:28:50;5.93;;;5.32;;
30543;SDS011;43388;46.308;4.600;2023-06-26T13:31:16;9.10;;;4.90;;
30543;SDS011;43388;46.308;4.600;2023-06-26T13:33:42;5.00;;;4.50;;
30543;SDS011;43388;46.308;4.600;2023-06-26T13:36:09;5.95;;;5.32;;
30543;SDS011;43388;46.308;4.600;2023-06-26T13:38:35;6.55;;;5.85;;
30543;SDS011;43388;46.308;4.600;2023-06-26T13:41:01;5.72;;;5.22;;
30543;SDS011;43388;46.308;4.600;2023-06-26T13:43:28;6.10;;;5.28;;
30543;SDS011;43388;46.308;4.600;2023-06-26T13:45:54;8.70;;;5.13;;
30543;SDS011;43388;46.308;4.600;2023-06-26T13:48:21;7.70;;;5.22;;
30543;SDS011;43388;46.308;4.600;2023-06-26T13:50:49;5.93;;;5.32;;
30543;SDS011;43388;46.308;4.600;2023-06-26T13:53:15;6.05;;;5.30;;
30543;SDS011;43388;46.308;4.600;2023-06-26T13:55:41;6.00;;;5.55;;
30543;SDS011;43388;46.308;4.600;2023-06-26T13:58:08;7.68;;;5.85;;
30543;SDS011;43388;46.308;4.600;2023-06-26T14:00:34;6.80;;;6.20;;
30543;SDS011;43388;46.308;4.600;2023-06-26T14:03:01;6.15;;;5.55;;
30543;SDS011;43388;46.308;4.600;2023-06-26T14:05:28;6.38;;;5.72;;
30543;SDS011;43388;46.308;4.600;2023-06-26T14:07:54;6.43;;;5.82;;
30543;SDS011;43388;46.308;4.600;2023-06-26T14:10:20;7.05;;;6.38;;
30543;SDS011;43388;46.308;4.600;2023-06-26T14:12:46;10.55;;;6.60;;
30543;SDS011;43388;46.308;4.600;2023-06-26T14:15:12;7.97;;;6.38;;
30543;SDS011;43388;46.308;4.600;2023-06-26T14:17:38;15.80;;;6.78;;
30543;SDS011;43388;46.308;4.600;2023-06-26T14:20:08;8.05;;;6.25;;
30543;SDS011;43388;46.308;4.600;2023-06-26T14:22:41;7.35;;;6.57;;
30543;SDS011;43388;46.308;4.600;2023-06-26T14:25:08;8.23;;;6.40;;
30543;SDS011;43388;46.308;4.600;2023-06-26T14:27:35;8.00;;;6.80;;
30543;SDS011;43388;46.308;4.600;2023-06-26T14:30:01;7.85;;;7.15;;
30543;SDS011;43388;46.308;4.600;2023-06-26T14:32:27;13.75;;;6.95;;
30543;SDS011;43388;46.308;4.600;2023-06-26T14:34:54;7.47;;;6.78;;
30543;SDS011;43388;46.308;4.600;2023-06-26T14:37:20;11.48;;;7.63;;
30543;SDS011;43388;46.308;4.600;2023-06-26T14:39:46;12.18;;;7.30;;
30543;SDS011;43388;46.308;4.600;2023-06-26T14:42:12;7.28;;;6.57;;
30543;SDS011;43388;46.308;4.600;2023-06-26T14:44:38;6.80;;;6.13;;
30543;SDS011;43388;46.308;4.600;2023-06-26T14:47:07;8.80;;;6.57;;
30543;SDS011;43388;46.308;4.600;2023-06-26T14:49:33;7.38;;;6.72;;
30543;SDS011;43388;46.308;4.600;2023-06-26T14:51:59;7.13;;;6.53;;
30543;SDS011;43388;46.308;4.600;2023-06-26T14:54:25;8.75;;;6.88;;